Time;durP1;ratioP1;P1;durP2;ratioP2;P2;SDS_P1;SDS_P2;PMS_P1;PMS_P2;Temp;Humidity;BMP_temperature;BMP_pressure;BME280_temperature;BME280_humidity;BME280_pressure;Samples;Min_cycle;Max_cycle;Signal;HPM_P1;HPM_P2
2023/07/27 00:01:19;;;;;;;1.25;0.73;;;15.40;95.50;;;;;;4972617;28;20492;-73
2023/07/27 00:03:44;;;;;;;2.55;1.20;;;15.40;95.40;;;;;;4973509;28;20109;-73
2023/07/27 00:06:10;;;;;;;2.25;0.90;;;15.40;95.50;;;;;;4980359;28;20034;-73
2023/07/27 00:08:35;;;;;;;3.70;1.17;;;15.30;95.90;;;;;;4977300;28;20111;-73
2023/07/27 00:11:01;;;;;;;1.35;0.63;;;15.20;95.90;;;;;;4972341;28;20043;-73
2023/07/27 00:13:27;;;;;;;3.00;0.60;;;15.20;96.30;;;;;;4973163;28;20019;-73
2023/07/27 00:15:52;;;;;;;1.88;1.00;;;15.20;96.00;;;;;;4979831;28;20037;-73
2023/07/27 00:18:18;;;;;;;3.60;1.00;;;15.10;96.40;;;;;;4980055;28;20101;-73
2023/07/27 00:20:44;;;;;;;1.73;0.82;;;15.10;96.20;;;;;;4973190;28;20404;-73
2023/07/27 00:23:09;;;;;;;2.35;0.73;;;15.00;96.20;;;;;;4976119;28;20097;-73
2023/07/27 00:25:35;;;;;;;2.60;0.98;;;14.90;96.40;;;;;;4982875;28;20026;-73
2023/07/27 00:28:00;;;;;;;2.30;0.80;;;14.80;96.60;;;;;;4981448;28;20054;-73
2023/07/27 00:30:26;;;;;;;6.55;1.30;;;14.70;97.20;;;;;;4978997;28;20118;-73
2023/07/27 00:32:52;;;;;;;1.63;0.70;;;14.80;96.70;;;;;;4976493;28;20140;-73
2023/07/27 00:35:17;;;;;;;1.25;0.75;;;14.70;96.70;;;;;;4977312;28;20035;-73
2023/07/27 00:37:43;;;;;;;2.95;0.70;;;14.80;96.80;;;;;;4985159;28;20030;-73
2023/07/27 00:40:09;;;;;;;2.40;0.77;;;14.80;96.40;;;;;;4977165;28;20031;-73
2023/07/27 00:42:34;;;;;;;4.13;1.40;;;14.80;96.40;;;;;;4955321;28;20034;-73
2023/07/27 00:45:00;;;;;;;2.20;0.95;;;14.80;96.50;;;;;;4980543;28;20477;-73
2023/07/27 00:47:26;;;;;;;1.27;0.60;;;14.80;96.70;;;;;;4975433;28;20473;-74
2023/07/27 00:49:52;;;;;;;2.20;0.80;;;14.80;96.70;;;;;;4975417;28;20035;-73
2023/07/27 00:52:17;;;;;;;4.00;0.90;;;14.80;97.00;;;;;;4978683;28;20038;-73
2023/07/27 00:54:43;;;;;;;1.63;0.80;;;14.70;97.50;;;;;;4975208;28;20081;-74
2023/07/27 00:57:09;;;;;;;2.72;0.50;;;14.60;96.80;;;;;;4972946;28;20027;-74
2023/07/27 00:59:35;;;;;;;1.95;0.70;;;14.70;97.00;;;;;;4982536;28;20033;-73
2023/07/27 01:02:02;;;;;;;1.67;0.77;;;14.50;97.20;;;;;;4976790;28;20031;-73
2023/07/27 01:04:28;;;;;;;1.27;0.70;;;14.40;96.90;;;;;;4980226;28;20042;-73
2023/07/27 01:06:53;;;;;;;2.35;0.73;;;14.30;98.20;;;;;;4972966;28;20031;-73
2023/07/27 01:09:19;;;;;;;2.08;0.75;;;14.30;97.50;;;;;;4985153;28;20049;-73
2023/07/27 01:11:58;;;;;;;2.65;0.77;;;14.40;97.50;;;;;;4975941;28;20523;-74
2023/07/27 01:14:37;;;;;;;2.60;0.85;;;14.70;96.20;;;;;;4987790;28;20490;-73
2023/07/27 01:17:27;;;;;;;2.58;0.73;;;14.90;95.70;;;;;;4977837;28;20027;-74
2023/07/27 01:20:16;;;;;;;1.90;0.75;;;14.80;96.10;;;;;;4981735;28;20050;-73
2023/07/27 01:23:05;;;;;;;1.60;0.60;;;14.80;95.80;;;;;;4939858;28;20042;-73
2023/07/27 01:26:05;;;;;;;3.50;0.90;;;14.50;96.90;;;;;;4975047;28;20056;-73
2023/07/27 01:29:07;;;;;;;2.30;0.75;;;14.60;96.50;;;;;;4978788;28;20038;-73
2023/07/27 01:31:43;;;;;;;2.75;1.00;;;14.80;96.00;;;;;;4981090;28;20035;-74
2023/07/27 01:34:26;;;;;;;3.70;1.15;;;14.80;96.20;;;;;;4972520;28;20027;-73
2023/07/27 01:36:58;;;;;;;3.83;1.10;;;14.90;96.10;;;;;;4981921;28;20432;-73
2023/07/27 01:39:27;;;;;;;2.22;0.90;;;14.90;96.00;;;;;;4971812;28;20041;-73
2023/07/27 01:41:54;;;;;;;2.75;1.20;;;14.70;96.20;;;;;;4971282;28;20030;-73
2023/07/27 01:44:23;;;;;;;1.90;0.80;;;14.70;96.40;;;;;;4973851;28;20073;-73
2023/07/27 01:46:51;;;;;;;3.80;1.40;;;14.60;96.50;;;;;;4980140;28;20027;-74
2023/07/27 01:49:18;;;;;;;2.53;0.90;;;14.80;96.10;;;;;;4988322;28;20109;-73
2023/07/27 01:51:45;;;;;;;2.88;0.90;;;14.70;96.70;;;;;;4975654;28;20465;-73
2023/07/27 01:54:13;;;;;;;2.55;0.80;;;14.70;96.80;;;;;;4974959;28;20038;-74
2023/07/27 01:56:40;;;;;;;3.40;0.90;;;14.60;96.80;;;;;;4971220;28;20026;-73
2023/07/27 01:59:06;;;;;;;4.18;1.05;;;14.80;96.40;;;;;;4975005;28;20031;-73
2023/07/27 02:01:33;;;;;;;3.10;0.75;;;14.60;96.90;;;;;;4977031;28;20149;-73
2023/07/27 02:03:59;;;;;;;1.75;0.80;;;14.80;95.80;;;;;;4981000;28;20045;-73
2023/07/27 02:06:25;;;;;;;2.10;0.90;;;14.60;96.50;;;;;;4980284;28;20392;-73
2023/07/27 02:08:51;;;;;;;1.63;0.68;;;14.60;96.40;;;;;;4971793;28;20039;-73
2023/07/27 02:11:19;;;;;;;2.60;1.05;;;14.40;96.80;;;;;;4972560;28;20552;-73
2023/07/27 02:13:59;;;;;;;1.80;0.75;;;14.30;97.00;;;;;;4977808;28;20031;-73
2023/07/27 02:16:53;;;;;;;1.88;0.80;;;14.30;97.40;;;;;;4971570;28;20030;-73
2023/07/27 02:19:26;;;;;;;3.90;0.85;;;14.20;97.40;;;;;;4970847;28;20058;-73
2023/07/27 02:21:54;;;;;;;2.17;0.90;;;14.20;98.00;;;;;;4973431;28;20038;-73
2023/07/27 02:24:21;;;;;;;3.33;1.05;;;14.30;96.90;;;;;;4969878;28;20035;-73
2023/07/27 02:26:47;;;;;;;3.22;0.90;;;14.30;97.00;;;;;;4970630;28;20050;-73
2023/07/27 02:29:13;;;;;;;2.35;0.90;;;14.20;97.10;;;;;;4971383;28;20031;-73
2023/07/27 02:31:38;;;;;;;1.52;0.70;;;14.20;97.50;;;;;;4974805;28;20047;-73
2023/07/27 02:34:04;;;;;;;3.40;0.93;;;14.20;96.90;;;;;;4970690;28;20037;-74
2023/07/27 02:36:30;;;;;;;1.98;0.68;;;14.30;96.90;;;;;;4980140;28;20034;-74
2023/07/27 02:38:56;;;;;;;1.45;0.65;;;14.20;98.10;;;;;;4975963;28;20037;-73
2023/07/27 02:41:21;;;;;;;3.10;0.93;;;14.10;97.60;;;;;;4972922;28;20573;-73
2023/07/27 02:43:47;;;;;;;2.25;1.20;;;14.10;98.00;;;;;;4971033;28;20027;-74
2023/07/27 02:46:13;;;;;;;2.17;0.80;;;14.30;97.30;;;;;;4970592;28;20038;-73
2023/07/27 02:48:38;;;;;;;4.25;1.08;;;14.30;97.30;;;;;;4977523;28;20030;-73
2023/07/27 02:51:05;;;;;;;4.13;0.90;;;14.30;97.10;;;;;;4976281;28;20034;-73
2023/07/27 02:53:30;;;;;;;2.13;0.75;;;14.50;96.90;;;;;;4983012;28;20022;-73
2023/07/27 02:55:59;;;;;;;3.40;1.00;;;14.30;97.00;;;;;;4977112;28;20116;-72
2023/07/27 02:58:25;;;;;;;2.60;0.70;;;14.40;96.60;;;;;;4970554;28;20038;-72
2023/07/27 03:00:55;;;;;;;2.00;0.88;;;14.10;98.10;;;;;;4982654;28;20456;-72
2023/07/27 03:03:21;;;;;;;3.00;1.27;;;14.00;98.00;;;;;;4970857;28;20033;-73
2023/07/27 03:05:47;;;;;;;2.58;1.10;;;13.80;98.50;;;;;;4973959;28;20043;-72
2023/07/27 03:08:13;;;;;;;1.88;0.82;;;13.90;97.90;;;;;;4974838;28;20034;-73
2023/07/27 03:10:39;;;;;;;3.17;0.90;;;13.70;99.20;;;;;;4974797;28;20050;-74
2023/07/27 03:13:05;;;;;;;2.53;0.90;;;13.60;99.10;;;;;;4966983;28;20037;-72
2023/07/27 03:15:30;;;;;;;1.55;0.70;;;13.80;98.50;;;;;;4979143;28;20050;-76
2023/07/27 03:17:56;;;;;;;1.75;0.85;;;13.80;98.50;;;;;;4969221;28;20101;-74
2023/07/27 03:20:22;;;;;;;1.80;0.77;;;13.80;98.50;;;;;;4966153;28;20023;-72
2023/07/27 03:22:48;;;;;;;2.70;1.00;;;13.70;98.70;;;;;;4970596;28;20446;-78
2023/07/27 03:25:14;;;;;;;2.25;1.00;;;13.70;98.60;;;;;;4966757;28;20042;-76
2023/07/27 03:27:40;;;;;;;2.22;0.90;;;13.80;98.00;;;;;;4966585;28;20597;-77
2023/07/27 03:30:06;;;;;;;1.65;0.75;;;13.80;98.50;;;;;;4975919;28;20073;-73
2023/07/27 03:32:32;;;;;;;2.85;1.10;;;13.50;99.30;;;;;;4976836;28;20038;-74
2023/07/27 03:34:57;;;;;;;1.92;0.82;;;13.70;99.10;;;;;;4972961;28;20085;-73
2023/07/27 03:37:23;;;;;;;1.45;0.70;;;13.60;99.70;;;;;;4984799;28;20027;-75
2023/07/27 03:39:48;;;;;;;2.63;1.10;;;13.70;99.60;;;;;;4974903;28;20421;-76
2023/07/27 03:42:14;;;;;;;2.25;0.80;;;13.60;99.90;;;;;;4981516;28;20507;-73
2023/07/27 03:44:40;;;;;;;1.52;0.85;;;13.20;99.90;;;;;;4972523;28;20031;-73
2023/07/27 03:47:05;;;;;;;1.08;0.50;;;13.10;99.90;;;;;;4977680;28;20027;-73
2023/07/27 03:49:31;;;;;;;3.35;0.90;;;13.30;99.90;;;;;;4970827;28;20030;-73
2023/07/27 03:51:57;;;;;;;2.38;0.88;;;13.40;99.90;;;;;;4978591;28;20041;-73
2023/07/27 03:54:22;;;;;;;2.78;1.13;;;13.50;99.90;;;;;;4976205;28;20085;-75
2023/07/27 03:56:48;;;;;;;2.90;0.82;;;13.50;99.90;;;;;;4977878;28;20030;-74
2023/07/27 03:59:14;;;;;;;2.08;0.90;;;13.60;99.90;;;;;;4974135;28;20104;-73
2023/07/27 04:01:39;;;;;;;2.78;0.80;;;13.70;99.90;;;;;;4978361;28;20506;-73
2023/07/27 04:04:05;;;;;;;1.67;0.80;;;13.60;99.90;;;;;;4970925;28;20026;-72
2023/07/27 04:06:30;;;;;;;3.83;1.52;;;13.50;99.90;;;;;;4975235;28;20114;-73
2023/07/27 04:08:56;;;;;;;2.42;0.77;;;13.50;99.90;;;;;;4976076;28;20034;-74
2023/07/27 04:11:22;;;;;;;3.58;1.20;;;13.70;99.90;;;;;;4968963;28;20062;-73
2023/07/27 04:13:47;;;;;;;3.50;1.00;;;13.80;99.90;;;;;;4976876;28;20026;-75
2023/07/27 04:16:13;;;;;;;2.70;1.10;;;13.90;99.70;;;;;;4969501;28;20038;-73
2023/07/27 04:18:39;;;;;;;4.65;1.33;;;14.10;99.30;;;;;;4968228;28;20114;-76
2023/07/27 04:21:04;;;;;;;3.58;1.33;;;14.20;99.40;;;;;;4967666;28;20034;-73
2023/07/27 04:23:30;;;;;;;4.20;1.30;;;14.10;99.70;;;;;;4970721;28;20022;-74
2023/07/27 04:25:56;;;;;;;3.53;1.00;;;14.00;99.90;;;;;;4967308;28;20031;-73
2023/07/27 04:28:21;;;;;;;3.42;0.90;;;13.80;99.90;;;;;;4967172;28;20085;-73
2023/07/27 04:30:47;;;;;;;2.78;1.08;;;13.70;99.90;;;;;;4975471;28;20085;-74
2023/07/27 04:33:13;;;;;;;2.28;0.70;;;13.80;99.90;;;;;;4969422;28;20420;-77
2023/07/27 04:35:38;;;;;;;1.80;0.77;;;13.90;99.90;;;;;;4967783;28;20034;-73
2023/07/27 04:38:04;;;;;;;2.42;1.02;;;14.00;99.90;;;;;;4968060;28;20189;-73
2023/07/27 04:40:29;;;;;;;4.70;1.15;;;14.10;99.90;;;;;;4973876;28;20030;-74
2023/07/27 04:42:55;;;;;;;2.58;1.00;;;14.20;99.90;;;;;;4968942;28;20034;-74
2023/07/27 04:45:22;;;;;;;2.72;0.88;;;14.20;99.90;;;;;;4966700;28;20046;-80
2023/07/27 04:47:47;;;;;;;2.95;1.05;;;14.30;99.90;;;;;;4965607;28;20046;-74
2023/07/27 04:50:13;;;;;;;2.72;1.00;;;14.20;99.90;;;;;;4967104;28;20097;-74
2023/07/27 04:52:39;;;;;;;3.28;1.17;;;14.30;99.90;;;;;;4972252;28;20293;-76
2023/07/27 04:55:05;;;;;;;1.70;0.60;;;14.30;99.90;;;;;;4967348;28;20065;-74
2023/07/27 04:57:30;;;;;;;3.47;0.90;;;14.20;99.90;;;;;;4957770;28;20042;-74
2023/07/27 04:59:56;;;;;;;2.47;1.15;;;14.40;99.90;;;;;;4971687;28;20023;-74
2023/07/27 05:02:22;;;;;;;2.08;0.98;;;14.70;99.90;;;;;;4967354;28;20060;-74
2023/07/27 05:04:50;;;;;;;5.43;1.35;;;14.80;99.90;;;;;;4966668;28;20453;-74
2023/07/27 05:07:16;;;;;;;3.10;1.30;;;15.00;99.90;;;;;;4974184;28;20035;-74
2023/07/27 05:09:41;;;;;;;4.00;1.08;;;15.10;99.90;;;;;;4968038;28;20093;-74
2023/07/27 05:12:07;;;;;;;2.63;1.00;;;15.20;99.90;;;;;;4969864;28;20054;-77
2023/07/27 05:14:33;;;;;;;4.88;1.20;;;15.30;99.20;;;;;;4974265;28;20101;-74
2023/07/27 05:16:58;;;;;;;2.03;0.82;;;15.50;99.90;;;;;;4966100;28;20049;-74
2023/07/27 05:19:24;;;;;;;3.00;0.95;;;15.70;99.90;;;;;;4969574;28;20038;-80
2023/07/27 05:21:49;;;;;;;4.50;1.25;;;15.70;99.90;;;;;;4972803;28;20113;-75
2023/07/27 05:24:15;;;;;;;3.40;0.77;;;15.70;99.90;;;;;;4977713;28;20490;-72
2023/07/27 05:26:41;;;;;;;3.10;1.10;;;15.80;99.90;;;;;;4966746;28;20696;-78
2023/07/27 05:29:07;;;;;;;2.92;1.25;;;15.90;99.90;;;;;;4974000;28;20034;-74
2023/07/27 05:31:33;;;;;;;2.95;1.35;;;15.80;99.80;;;;;;4966202;28;20444;-73
2023/07/27 05:33:58;;;;;;;4.93;1.30;;;15.90;99.20;;;;;;4971452;28;20035;-76
2023/07/27 05:36:24;;;;;;;3.38;1.45;;;15.90;98.20;;;;;;4965876;28;20504;-76
2023/07/27 05:38:50;;;;;;;3.50;1.58;;;15.90;98.50;;;;;;4963811;28;20026;-77
2023/07/27 05:41:15;;;;;;;3.20;1.13;;;16.10;97.00;;;;;;4972206;28;20054;-77
2023/07/27 05:43:41;;;;;;;4.65;1.25;;;16.10;99.60;;;;;;4964547;28;20022;-76
2023/07/27 05:46:07;;;;;;;2.42;1.00;;;16.30;99.30;;;;;;4971903;28;20030;-76
2023/07/27 05:48:34;;;;;;;2.70;1.08;;;16.20;99.90;;;;;;4977574;28;20034;-76
2023/07/27 05:50:59;;;;;;;3.30;1.33;;;16.20;99.90;;;;;;4973674;28;20443;-75
2023/07/27 05:53:25;;;;;;;3.35;1.33;;;16.00;99.90;;;;;;4972853;28;20037;-76
2023/07/27 05:55:51;;;;;;;6.15;1.63;;;16.10;99.30;;;;;;4978154;28;20070;-76
2023/07/27 05:58:16;;;;;;;3.13;1.48;;;16.20;99.20;;;;;;4974962;28;20057;-75
2023/07/27 06:00:42;;;;;;;2.90;1.38;;;16.20;98.90;;;;;;4974894;28;20106;-76
2023/07/27 06:03:08;;;;;;;3.17;1.10;;;16.30;99.00;;;;;;4966422;28;20516;-75
2023/07/27 06:05:33;;;;;;;3.05;1.45;;;16.30;99.30;;;;;;4975060;28;20035;-76
2023/07/27 06:07:59;;;;;;;4.30;1.58;;;16.40;98.80;;;;;;4965365;28;20472;-75
2023/07/27 06:10:25;;;;;;;2.90;1.27;;;16.30;98.90;;;;;;4966621;28;20051;-75
2023/07/27 06:12:50;;;;;;;3.42;1.58;;;16.30;99.50;;;;;;4975687;28;20018;-77
2023/07/27 06:15:16;;;;;;;4.28;1.42;;;16.30;99.10;;;;;;4966871;28;20031;-77
2023/07/27 06:17:41;;;;;;;3.97;1.50;;;16.30;99.10;;;;;;4966637;28;20549;-73
2023/07/27 06:20:08;;;;;;;3.70;1.50;;;16.20;99.80;;;;;;4969578;28;20105;-76
2023/07/27 06:22:34;;;;;;;3.28;1.38;;;16.20;99.50;;;;;;4967560;28;20571;-75
2023/07/27 06:24:59;;;;;;;3.15;1.30;;;16.20;99.20;;;;;;4965700;28;20019;-75
2023/07/27 06:27:25;;;;;;;4.28;1.33;;;16.20;99.90;;;;;;4976554;28;20039;-76
2023/07/27 06:29:50;;;;;;;2.63;1.00;;;16.30;99.90;;;;;;4968828;28;20469;-76
2023/07/27 06:32:16;;;;;;;3.90;1.17;;;16.40;99.90;;;;;;4967199;28;20034;-76
2023/07/27 06:34:42;;;;;;;5.13;1.10;;;16.30;99.90;;;;;;4977807;28;20030;-77
2023/07/27 06:37:07;;;;;;;3.85;1.30;;;16.40;99.40;;;;;;4974058;28;20639;-76
2023/07/27 06:39:33;;;;;;;3.65;1.30;;;16.30;98.40;;;;;;4967641;28;20604;-75
2023/07/27 06:41:59;;;;;;;6.68;1.70;;;16.40;98.50;;;;;;4968614;28;20019;-77
2023/07/27 06:44:25;;;;;;;3.55;1.55;;;16.60;98.40;;;;;;4969717;28;20569;-76
2023/07/27 06:46:50;;;;;;;5.00;1.40;;;16.60;97.90;;;;;;4970118;28;20492;-75
2023/07/27 06:49:16;;;;;;;2.70;1.40;;;16.50;97.00;;;;;;4966777;28;20025;-75
2023/07/27 06:51:41;;;;;;;5.05;1.27;;;16.50;97.20;;;;;;4973905;28;20035;-76
2023/07/27 06:54:07;;;;;;;3.88;1.58;;;16.80;96.90;;;;;;4972212;28;20410;-74
2023/07/27 06:56:33;;;;;;;4.47;1.58;;;17.10;96.70;;;;;;4963372;28;20022;-75
2023/07/27 06:58:58;;;;;;;5.68;1.30;;;17.30;96.20;;;;;;4974982;28;20027;-76
2023/07/27 07:01:24;;;;;;;2.60;1.05;;;17.20;96.40;;;;;;4974498;28;20030;-76
2023/07/27 07:03:50;;;;;;;5.00;1.50;;;17.20;96.30;;;;;;4972840;28;20051;-76
2023/07/27 07:06:16;;;;;;;3.90;1.60;;;17.20;97.00;;;;;;4978765;28;20037;-78
2023/07/27 07:08:41;;;;;;;3.22;1.48;;;17.30;97.20;;;;;;4968410;28;20177;-76
2023/07/27 07:11:08;;;;;;;5.07;2.22;;;17.70;96.60;;;;;;4965233;28;20054;-75
2023/07/27 07:13:34;;;;;;;4.22;1.35;;;18.00;96.30;;;;;;4965192;28;20026;-77
2023/07/27 07:16:00;;;;;;;3.42;1.52;;;18.00;96.60;;;;;;4966207;28;20540;-76
2023/07/27 07:18:25;;;;;;;4.78;1.33;;;17.80;97.60;;;;;;4968883;28;20031;-76
2023/07/27 07:20:51;;;;;;;3.42;1.52;;;17.90;96.00;;;;;;4975386;28;20037;-79
2023/07/27 07:23:16;;;;;;;3.55;1.20;;;17.90;96.30;;;;;;4972760;28;20026;-77
2023/07/27 07:25:43;;;;;;;5.15;1.50;;;17.90;95.20;;;;;;4971914;28;20031;-76
2023/07/27 07:28:09;;;;;;;4.68;1.55;;;17.80;95.50;;;;;;4974254;28;20473;-76
2023/07/27 07:30:38;;;;;;;3.40;1.30;;;18.10;96.40;;;;;;4974743;28;20085;-75
2023/07/27 07:33:04;;;;;;;2.42;1.20;;;18.20;95.00;;;;;;4974701;28;20026;-77
2023/07/27 07:35:30;;;;;;;2.88;1.42;;;18.40;95.10;;;;;;4972156;28;20114;-76
2023/07/27 07:37:55;;;;;;;3.10;1.50;;;18.70;95.30;;;;;;4970798;28;20038;-76
2023/07/27 07:40:24;;;;;;;4.10;1.85;;;19.40;94.70;;;;;;4972501;28;20173;-76
2023/07/27 07:42:49;;;;;;;4.80;1.55;;;19.20;94.40;;;;;;4974005;28;20084;-76
2023/07/27 07:45:15;;;;;;;4.60;1.58;;;18.90;94.70;;;;;;4972668;28;20121;-76
2023/07/27 07:47:41;;;;;;;3.30;1.50;;;18.80;94.80;;;;;;4976563;28;20039;-76
2023/07/27 07:50:07;;;;;;;3.60;1.40;;;18.80;95.80;;;;;;4973675;28;20498;-79
2023/07/27 07:52:32;;;;;;;4.30;1.52;;;18.80;94.90;;;;;;4977185;28;20034;-76
2023/07/27 07:54:59;;;;;;;3.88;1.00;;;18.60;96.20;;;;;;4965204;28;20041;-76
2023/07/27 07:57:25;;;;;;;3.65;1.52;;;18.50;96.30;;;;;;4979486;28;20069;-75
2023/07/27 07:59:50;;;;;;;3.58;1.23;;;18.40;95.80;;;;;;4978095;28;20035;-76
2023/07/27 08:02:16;;;;;;;2.60;1.10;;;18.70;95.80;;;;;;4967919;28;20035;-75
2023/07/27 08:04:42;;;;;;;3.38;1.52;;;18.90;95.50;;;;;;4967295;28;20053;-76
2023/07/27 08:07:07;;;;;;;3.85;1.35;;;20.00;93.60;;;;;;4971457;28;20515;-76
2023/07/27 08:09:33;;;;;;;3.08;1.40;;;19.70;94.00;;;;;;4969539;28;20066;-78
2023/07/27 08:11:59;;;;;;;3.28;1.33;;;20.20;94.40;;;;;;4970377;28;20093;-76
2023/07/27 08:14:24;;;;;;;3.20;1.40;;;21.80;91.50;;;;;;4972116;28;20070;-76
2023/07/27 08:16:50;;;;;;;4.28;1.30;;;22.60;90.90;;;;;;4974831;28;20070;-77
2023/07/27 08:19:16;;;;;;;4.05;1.25;;;23.10;90.80;;;;;;4970611;28;20041;-76
2023/07/27 08:21:41;;;;;;;3.92;1.42;;;22.40;90.40;;;;;;4982871;28;20084;-76
2023/07/27 08:24:07;;;;;;;3.42;1.52;;;21.80;90.60;;;;;;4976122;28;20069;-77
2023/07/27 08:26:33;;;;;;;5.68;1.77;;;20.70;93.30;;;;;;4976082;28;20141;-76
2023/07/27 08:28:58;;;;;;;7.45;2.45;;;20.40;93.80;;;;;;4968337;28;20392;-76
2023/07/27 08:31:24;;;;;;;3.75;1.48;;;20.00;93.60;;;;;;4984279;28;20487;-76
2023/07/27 08:33:50;;;;;;;6.57;1.85;;;19.80;93.20;;;;;;4969109;28;20529;-75
2023/07/27 08:36:15;;;;;;;3.47;1.70;;;19.80;94.10;;;;;;4976460;28;20042;-76
2023/07/27 08:38:42;;;;;;;7.35;1.67;;;19.80;93.60;;;;;;4969187;28;20041;-76
2023/07/27 08:41:07;;;;;;;3.00;1.38;;;20.00;94.70;;;;;;4976177;28;20034;-76
2023/07/27 08:43:33;;;;;;;9.30;2.00;;;20.20;93.80;;;;;;4967837;28;20054;-77
2023/07/27 08:46:00;;;;;;;7.25;1.58;;;20.20;93.80;;;;;;4968504;28;20174;-75
2023/07/27 08:48:27;;;;;;;5.68;1.67;;;20.40;92.70;;;;;;4975709;28;20023;-76
2023/07/27 08:50:53;;;;;;;3.92;1.25;;;20.40;92.30;;;;;;4982489;28;20100;-76
2023/07/27 08:53:19;;;;;;;2.95;1.77;;;20.80;93.00;;;;;;4975992;28;20082;-75
2023/07/27 08:55:44;;;;;;;4.32;1.58;;;21.20;93.40;;;;;;4976392;28;20062;-76
2023/07/27 08:58:11;;;;;;;6.53;1.80;;;21.50;92.70;;;;;;4969097;28;20510;-77
2023/07/27 09:00:40;;;;;;;4.47;1.40;;;21.40;92.90;;;;;;4973923;28;20511;-76
2023/07/27 09:03:09;;;;;;;2.78;1.40;;;20.70;91.60;;;;;;4968071;28;20026;-76
2023/07/27 09:05:39;;;;;;;5.88;1.63;;;21.10;92.80;;;;;;4974931;28;20608;-76
2023/07/27 09:08:13;;;;;;;5.10;1.65;;;21.40;91.80;;;;;;4975616;28;20808;-76
2023/07/27 09:10:41;;;;;;;5.22;1.58;;;21.60;92.40;;;;;;4972160;28;20121;-76
2023/07/27 09:13:07;;;;;;;4.20;1.60;;;21.40;92.80;;;;;;4967798;28;20027;-77
2023/07/27 09:15:35;;;;;;;4.88;1.50;;;21.20;93.70;;;;;;4967702;28;20030;-76
2023/07/27 09:18:02;;;;;;;8.80;2.03;;;21.20;93.70;;;;;;4978522;28;20026;-78
2023/07/27 09:20:29;;;;;;;5.22;2.03;;;21.40;93.00;;;;;;4977055;28;20466;-76
2023/07/27 09:22:59;;;;;;;3.75;1.80;;;21.50;92.60;;;;;;4967324;28;20023;-76
2023/07/27 09:25:24;;;;;;;4.65;1.73;;;21.60;93.30;;;;;;4973727;28;20440;-76
2023/07/27 09:27:55;;;;;;;4.82;1.63;;;21.80;92.20;;;;;;4977124;28;20031;-77
2023/07/27 09:30:22;;;;;;;5.47;1.77;;;22.20;91.90;;;;;;4975893;28;20034;-75
2023/07/27 09:32:49;;;;;;;2.97;1.30;;;21.70;92.60;;;;;;4970438;28;20066;-77
2023/07/27 09:35:16;;;;;;;3.40;1.20;;;22.00;92.90;;;;;;4976550;28;20062;-75
2023/07/27 09:37:51;;;;;;;3.75;1.70;;;22.10;91.30;;;;;;4973827;28;20067;-76
2023/07/27 09:40:23;;;;;;;4.32;1.55;;;22.00;92.10;;;;;;4977354;28;20027;-76
2023/07/27 09:42:49;;;;;;;3.22;1.58;;;21.80;91.70;;;;;;4977239;28;20040;-76
2023/07/27 09:45:15;;;;;;;4.63;1.30;;;22.40;91.60;;;;;;4971283;28;20106;-76
2023/07/27 09:47:41;;;;;;;4.63;1.50;;;22.40;91.60;;;;;;4981947;28;20113;-77
2023/07/27 09:50:08;;;;;;;5.05;1.30;;;22.50;92.70;;;;;;4969157;28;21917;-75
2023/07/27 09:52:36;;;;;;;5.53;1.67;;;22.80;92.20;;;;;;4987396;28;20077;-75
2023/07/27 09:55:02;;;;;;;3.00;1.55;;;22.70;92.10;;;;;;4980547;28;20029;-77
2023/07/27 09:57:29;;;;;;;6.35;1.88;;;22.60;90.80;;;;;;4968326;28;20626;-76
2023/07/27 09:59:55;;;;;;;3.53;1.20;;;22.60;91.70;;;;;;4974845;28;20034;-75
2023/07/27 10:02:22;;;;;;;3.25;1.50;;;22.70;92.40;;;;;;4972441;28;20027;-75
2023/07/27 10:04:51;;;;;;;2.88;1.50;;;22.80;90.80;;;;;;4981301;28;20062;-76
2023/07/27 10:07:21;;;;;;;2.55;1.40;;;22.60;91.30;;;;;;4981305;28;20033;-75
2023/07/27 10:09:47;;;;;;;3.13;1.35;;;23.00;90.70;;;;;;4981387;28;20034;-77
2023/07/27 10:12:29;;;;;;;5.38;1.48;;;23.00;90.00;;;;;;4966477;28;20046;-76
2023/07/27 10:15:27;;;;;;;3.65;1.70;;;23.10;90.80;;;;;;4981368;28;20034;-76
2023/07/27 10:17:58;;;;;;;2.83;1.45;;;22.90;91.60;;;;;;4974383;28;20460;-75
2023/07/27 10:20:26;;;;;;;4.50;1.67;;;23.20;92.20;;;;;;4982541;28;20623;-76
2023/07/27 10:23:10;;;;;;;5.80;1.77;;;23.20;91.80;;;;;;4978879;28;20424;-75
2023/07/27 10:25:54;;;;;;;4.43;1.65;;;23.20;91.00;;;;;;4968221;28;20449;-76
2023/07/27 10:28:39;;;;;;;;;;;23.20;90.50;;;;;;4976483;28;20037;-77
2023/07/27 10:31:13;;;;;;;5.40;1.63;;;23.40;91.00;;;;;;4968316;28;19964;-76
2023/07/27 10:34:08;;;;;;;3.00;1.05;;;23.30;90.90;;;;;;4982978;28;20089;-76
2023/07/27 10:36:57;;;;;;;4.28;1.58;;;23.40;89.40;;;;;;4948257;28;20046;-76
2023/07/27 10:39:34;;;;;;;3.30;1.42;;;23.00;89.20;;;;;;4971602;28;20504;-77
2023/07/27 10:42:18;;;;;;;3.65;1.23;;;22.90;90.10;;;;;;4976995;28;20031;-76
2023/07/27 10:44:51;;;;;;;3.42;1.15;;;23.00;90.40;;;;;;4975391;28;20081;-73
2023/07/27 10:47:22;;;;;;;3.03;1.40;;;23.40;90.10;;;;;;4968506;28;20039;-77
2023/07/27 10:49:59;;;;;;;3.92;1.48;;;23.60;91.60;;;;;;4965701;28;20085;-75
2023/07/27 10:52:33;;;;;;;1.98;1.02;;;23.80;91.70;;;;;;4973307;28;20046;-73
2023/07/27 10:54:59;;;;;;;;;;;23.70;91.00;;;;;;4978582;28;20038;-74
2023/07/27 10:57:32;;;;;;;3.47;1.35;;;23.60;91.80;;;;;;4967368;28;19961;-74
2023/07/27 10:59:58;;;;;;;3.63;1.50;;;23.60;92.10;;;;;;4965657;28;20110;-75
2023/07/27 11:02:29;;;;;;;4.07;1.20;;;23.50;91.30;;;;;;4972850;28;20604;-73
2023/07/27 11:04:59;;;;;;;2.40;1.13;;;23.30;92.80;;;;;;4968833;28;20023;-73
2023/07/27 11:07:29;;;;;;;4.35;1.50;;;23.70;92.60;;;;;;4985970;28;20014;-75
2023/07/27 11:09:55;;;;;;;4.40;1.92;;;23.80;91.80;;;;;;4967623;28;20465;-77
2023/07/27 11:12:20;;;;;;;4.68;1.38;;;23.60;93.00;;;;;;4983258;28;20054;-74
2023/07/27 11:14:46;;;;;;;2.83;1.15;;;23.80;91.10;;;;;;4975117;28;20039;-75
2023/07/27 11:17:12;;;;;;;2.53;1.10;;;23.50;90.80;;;;;;4981611;28;20038;-74
2023/07/27 11:19:38;;;;;;;6.32;1.52;;;23.80;92.10;;;;;;4968354;28;20023;-74
2023/07/27 11:22:04;;;;;;;1.77;1.13;;;24.00;92.10;;;;;;4969686;28;20488;-74
2023/07/27 11:24:31;;;;;;;4.82;1.27;;;24.30;92.20;;;;;;4969103;28;20031;-74
2023/07/27 11:26:57;;;;;;;2.60;1.45;;;24.70;91.60;;;;;;4971204;28;20026;-74
2023/07/27 11:29:23;;;;;;;3.85;1.27;;;25.00;91.30;;;;;;4967522;28;20119;-73
2023/07/27 11:32:00;;;;;;;3.92;1.75;;;25.10;91.50;;;;;;4975995;28;20031;-75
2023/07/27 11:34:28;;;;;;;4.78;1.48;;;24.90;91.10;;;;;;4971696;28;20035;-72
2023/07/27 11:36:59;;;;;;;4.13;1.52;;;24.80;90.90;;;;;;4971343;28;20033;-73
2023/07/27 11:39:25;;;;;;;3.58;1.40;;;24.60;90.70;;;;;;4967790;28;20034;-73
2023/07/27 11:41:52;;;;;;;3.03;1.20;;;24.50;90.70;;;;;;4972691;28;20065;-73
2023/07/27 11:44:22;;;;;;;2.90;1.20;;;24.20;90.30;;;;;;4956708;28;20492;-73
2023/07/27 11:46:51;;;;;;;2.35;1.10;;;24.30;91.00;;;;;;4968299;28;20030;-74
2023/07/27 11:49:20;;;;;;;3.88;1.65;;;25.00;92.60;;;;;;4965401;28;20139;-73
2023/07/27 11:51:46;;;;;;;2.63;1.10;;;25.40;92.40;;;;;;4964584;28;20081;-73
2023/07/27 11:54:22;;;;;;;2.85;1.35;;;25.30;91.30;;;;;;4965371;28;20126;-75
2023/07/27 11:56:56;;;;;;;2.63;1.13;;;24.60;91.00;;;;;;4968122;28;20050;-73
2023/07/27 11:59:22;;;;;;;;;;;24.20;91.50;;;;;;4971466;28;20026;-74
2023/07/27 12:01:50;;;;;;;3.05;1.02;;;24.60;92.40;;;;;;4974732;28;19921;-73
2023/07/27 12:04:16;;;;;;;4.55;1.33;;;25.00;91.20;;;;;;4973071;28;20037;-74
2023/07/27 12:06:43;;;;;;;2.28;0.98;;;25.40;92.50;;;;;;4965744;28;20114;-76
2023/07/27 12:09:09;;;;;;;2.90;1.10;;;25.50;91.50;;;;;;4975059;28;20370;-74
2023/07/27 12:11:35;;;;;;;2.20;1.23;;;25.70;93.30;;;;;;4969778;28;20042;-73
2023/07/27 12:14:22;;;;;;;2.30;0.95;;;25.70;92.40;;;;;;4977740;28;20461;-73
2023/07/27 12:16:48;;;;;;;2.80;1.00;;;25.90;92.00;;;;;;4972990;28;20031;-74
2023/07/27 12:19:13;;;;;;;5.25;1.20;;;26.00;92.60;;;;;;4968263;28;20469;-74
2023/07/27 12:21:40;;;;;;;3.35;1.50;;;26.10;92.60;;;;;;4971273;28;20030;-74
2023/07/27 12:24:10;;;;;;;2.70;1.10;;;25.90;91.80;;;;;;4973151;28;20030;-74
2023/07/27 12:26:37;;;;;;;2.65;1.10;;;26.10;92.90;;;;;;4972988;28;20069;-74
2023/07/27 12:29:04;;;;;;;2.60;1.23;;;26.20;91.80;;;;;;4967565;28;20106;-75
2023/07/27 12:31:30;;;;;;;3.17;1.05;;;26.20;91.60;;;;;;4972752;28;20034;-75
2023/07/27 12:33:56;;;;;;;3.20;1.10;;;26.30;92.40;;;;;;4971860;28;20165;-74
2023/07/27 12:36:22;;;;;;;2.85;1.35;;;26.30;92.30;;;;;;4968210;28;20177;-74
2023/07/27 12:38:47;;;;;;;3.53;1.20;;;26.30;92.20;;;;;;4968584;28;20030;-74
2023/07/27 12:41:13;;;;;;;2.65;1.10;;;26.10;90.70;;;;;;4970569;28;20035;-75
2023/07/27 12:43:39;;;;;;;4.07;1.08;;;26.30;91.20;;;;;;4972574;28;20034;-74
2023/07/27 12:46:05;;;;;;;3.90;1.30;;;26.10;90.80;;;;;;4973670;28;20039;-73
2023/07/27 12:48:31;;;;;;;5.38;1.15;;;26.20;90.90;;;;;;4977090;28;20118;-74
2023/07/27 12:50:57;;;;;;;1.95;1.00;;;26.20;91.00;;;;;;4969174;28;20081;-74